DW5595 Weather Reports


Display with metric or nautical units.
time (UTC)temp
F
wind
direction
speed
MPH
gust
MPH
rain 1hr
in
rain 24hr
in
rain mn
in
humidity
%
barometer
mb
20240228225833 59 332 2.0 7.0 0.00 0.07 0.07 76 1012.9
20240228225329 59 346 1.0 8.0 0.00 0.07 0.07 77 1012.7
20240228224824 59 329 4.0 13.0 0.01 0.07 0.07 77 1012.6
20240228224328 59 321 6.0 20.0 0.01 0.07 0.07 77 1012.2
20240228223827 60 340 7.0 20.0 0.02 0.07 0.07 78 1012.2
20240228223329 60 315 8.0 20.0 0.02 0.07 0.07 79 1012.1
20240228222828 60 299 3.0 15.0 0.02 0.07 0.07 80 1011.9
20240228222328 60 293 6.0 15.0 0.02 0.07 0.07 81 1011.5
20240228221857 60 331 6.0 15.0 0.03 0.07 0.07 81 1011.4
20240228221406 61 316 6.0 17.0 0.03 0.07 0.07 81 1011.2
20240228220841 61 313 7.0 19.0 0.03 0.07 0.07 82 1010.9
20240228220345 61 333 5.0 19.0 0.03 0.07 0.07 85 1010.9
20240228215840 61 322 3.0 18.0 0.03 0.07 0.07 86 1010.9
20240228215344 63 317 4.0 20.0 0.04 0.07 0.07 85 1010.6
20240228214842 64 324 13.0 20.0 0.04 0.06 0.06 85 1010.5
20240228214332 64 325 2.0 6.0 0.05 0.06 0.06 91 1010.3
20240228213838 64 228 0.0 6.0 0.05 0.05 0.05 91 1009.6
20240228213335 64 230 0.0 8.0 0.05 0.05 0.05 91 1009.4
20240228212900 65 206 2.0 9.0 0.05 0.05 0.05 90 1009.3
20240228212358 65 261 0.0 13.0 0.05 0.05 0.05 90 1009.2
20240228211834 65 271 2.0 13.0 0.04 0.04 0.04 89 1009.1
20240228211333 65 216 2.0 13.0 0.04 0.04 0.04 89 1008.8
20240228210827 65 261 1.0 6.0 0.04 0.04 0.04 89 1008.5
20240228210335 65 180 0.0 9.0 0.04 0.04 0.04 89 1008.1
20240228205831 66 216 2.0 13.0 0.04 0.04 0.04 87 1008.1
20240228205348 66 222 4.0 13.0 0.02 0.02 0.02 85 1008.1
20240228204835 66 277 3.0 15.0 0.01 0.01 0.01 83 1008.1
20240228204338 68 199 5.0 15.0 0.01 0.01 0.01 81 1007.8
20240228203845 68 160 3.0 10.0 0.00 0.00 0.00 79 1007.8
20240228203330 69 232 2.0 11.0 0.00 0.00 0.00 76 1008.1
20240228202834 69 131 3.0 11.0 0.00 0.00 0.00 76 1008.1
20240228202331 69 241 4.0 15.0 0.00 0.00 0.00 75 1008.0
20240228201828 69 175 3.0 15.0 0.00 0.00 0.00 75 1008.0
20240228201329 69 144 1.0 9.0 0.00 0.00 0.00 76 1007.8
20240228200830 69 179 5.0 12.0 0.00 0.00 0.00 76 1007.8
20240228200359 69 246 1.0 18.0 0.00 0.00 0.00 76 1007.7
20240228195833 69 154 1.0 16.0 0.00 0.00 0.00 77 1007.7
20240228195344 68 199 5.0 16.0 0.00 0.00 0.00 77 1007.6
20240228194828 68 338 3.0 23.0 0.00 0.00 0.00 77 1007.6
20240228194331 68 188 6.0 23.0 0.00 0.00 0.00 78 1007.6
20240228193828 68 180 5.0 18.0 0.00 0.00 0.00 78 1007.6
20240228193336 68 205 6.0 18.0 0.00 0.00 0.00 78 1007.9
20240228192833 68 182 3.0 17.0 0.00 0.00 0.00 78 1007.8
20240228192343 68 253 1.0 17.0 0.00 0.00 0.00 78 1007.6
20240228191828 68 186 7.0 16.0 0.00 0.00 0.00 78 1007.8
20240228191325 68 192 5.0 14.0 0.00 0.00 0.00 79 1007.7
20240228190825 68 234 3.0 16.0 0.00 0.00 0.00 78 1007.8
20240228190335 67 197 3.0 16.0 0.00 0.00 0.00 79 1007.8
20240228185830 67 162 6.0 14.0 0.00 0.00 0.00 79 1008.1
20240228185327 67 218 6.0 15.0 0.00 0.00 0.00 79 1008.0
20240228184849 67 194 7.0 14.0 0.00 0.00 0.00 79 1008.1
20240228184327 67 172 5.0 14.0 0.00 0.00 0.00 79 1008.2
20240228183825 67 190 3.0 12.0 0.00 0.00 0.00 79 1008.4
20240228183354 67 194 5.0 14.0 0.00 0.00 0.00 79 1008.5
20240228182828 67 255 5.0 13.0 0.00 0.00 0.00 79 1008.5
20240228182346 67 215 1.0 11.0 0.00 0.00 0.00 80 1008.7
20240228181829 67 184 3.0 14.0 0.00 0.00 0.00 80 1008.8
20240228181329 67 219 4.0 13.0 0.00 0.00 0.00 80 1008.7
20240228180837 67 213 1.0 13.0 0.00 0.00 0.00 80 1009.0
20240228180341 66 140 3.0 14.0 0.00 0.00 0.00 81 1009.1
20240228175836 66 178 5.0 13.0 0.00 0.00 0.00 81 1009.3
20240228175333 66 186 2.0 12.0 0.00 0.00 0.00 80 1009.4
20240228174841 66 184 1.0 25.0 0.00 0.00 0.00 81 1009.5
20240228174340 66 150 6.0 25.0 0.00 0.00 0.00 81 1009.4
20240228173837 66 290 3.0 15.0 0.00 0.00 0.00 80 1009.4
20240228173335 66 214 2.0 16.0 0.00 0.00 0.00 81 1009.6
20240228172845 66 161 5.0 17.0 0.00 0.00 0.00 81 1009.6
20240228172344 66 201 2.0 13.0 0.00 0.00 0.00 81 1009.7
20240228171836 66 202 4.0 13.0 0.00 0.00 0.00 82 1009.7
20240228171333 65 225 1.0 9.0 0.00 0.00 0.00 82 1009.9
20240228170851 65 196 1.0 13.0 0.00 0.00 0.00 82 1009.9
20240228170328 65 263 4.0 13.0 0.00 0.00 0.00 82 1009.8
20240228165828 65 245 3.0 12.0 0.00 0.01 0.00 82 1009.7
20240228165343 65 199 2.0 7.0 0.00 0.01 0.00 82 1009.9
20240228164845 65 233 2.0 13.0 0.00 0.01 0.00 83 1009.7
20240228164327 65 206 3.0 13.0 0.00 0.01 0.00 83 1009.9
20240228163830 64 157 0.0 6.0 0.00 0.01 0.00 83 1010.1
20240228163333 64 153 1.0 9.0 0.00 0.01 0.00 84 1010.3
20240228162849 64 171 2.0 8.0 0.00 0.01 0.00 84 1010.4
20240228162406 63 182 0.0 10.0 0.00 0.01 0.00 85 1010.4
20240228161844 63 209 1.0 13.0 0.00 0.01 0.00 85 1010.5
20240228161326 63 252 4.0 15.0 0.00 0.01 0.00 85 1010.4
20240228160830 63 261 2.0 15.0 0.00 0.01 0.00 86 1010.3
20240228160334 63 213 4.0 14.0 0.00 0.01 0.00 86 1010.3
20240228155850 62 202 4.0 10.0 0.00 0.03 0.00 86 1010.3
20240228155330 62 209 3.0 12.0 0.00 0.03 0.00 86 1010.4
20240228154835 62 193 4.0 12.0 0.00 0.03 0.00 86 1010.6
20240228154337 62 207 4.0 17.0 0.00 0.03 0.00 86 1010.5
20240228153835 62 188 2.0 17.0 0.00 0.03 0.00 87 1010.4
20240228153333 62 240 3.0 15.0 0.00 0.03 0.00 86 1010.5
20240228152856 62 200 4.0 10.0 0.00 0.03 0.00 87 1010.7
20240228152338 62 179 3.0 10.0 0.00 0.03 0.00 87 1010.7
20240228151829 61 170 2.0 14.0 0.00 0.03 0.00 87 1010.8
20240228151328 61 178 4.0 14.0 0.00 0.03 0.00 87 1010.5
20240228150836 61 214 3.0 15.0 0.00 0.03 0.00 87 1010.3
20240228150337 61 248 5.0 15.0 0.00 0.03 0.00 87 1010.2
20240228145835 61 156 2.0 9.0 0.00 0.03 0.00 87 1010.3
20240228145346 61 197 2.0 13.0 0.00 0.03 0.00 87 1010.3
20240228144842 61 118 2.0 13.0 0.00 0.03 0.00 87 1010.3
20240228144322 61 184 4.0 13.0 0.00 0.03 0.00 87 1010.3
20240228143849 61 236 4.0 15.0 0.00 0.03 0.00 87 1010.2
20240228143356 61 203 3.0 15.0 0.00 0.03 0.00 87 1010.4
20240228142849 61 214 4.0 12.0 0.00 0.03 0.00 87 1010.4
20240228142328 60 190 5.0 19.0 0.00 0.03 0.00 87 1010.6
20240228141828 60 171 6.0 19.0 0.00 0.03 0.00 87 1010.5
20240228141328 60 165 4.0 15.0 0.00 0.03 0.00 87 1010.6
20240228140848 60 256 3.0 15.0 0.00 0.03 0.00 87 1010.5
20240228140329 60 228 4.0 15.0 0.00 0.03 0.00 86 1010.5
20240228135826 60 229 5.0 12.0 0.00 0.03 0.00 86 1010.6
20240228135331 60 169 5.0 13.0 0.00 0.03 0.00 86 1010.5
20240228134904 60 194 5.0 15.0 0.00 0.03 0.00 86 1010.6
20240228134328 60 221 4.0 15.0 0.00 0.03 0.00 86 1010.8
20240228133845 60 180 3.0 15.0 0.00 0.03 0.00 86 1010.7
20240228133343 60 279 4.0 16.0 0.00 0.03 0.00 86 1010.8
20240228132842 60 162 4.0 16.0 0.00 0.03 0.00 85 1010.7
20240228132342 60 142 5.0 15.0 0.00 0.03 0.00 85 1010.7
20240228131833 60 223 3.0 12.0 0.00 0.03 0.00 85 1010.8
20240228131331 60 230 5.0 12.0 0.00 0.03 0.00 85 1010.7
20240228130843 60 177 6.0 13.0 0.00 0.03 0.00 85 1010.7
20240228130328 60 201 1.0 8.0 0.00 0.03 0.00 85 1010.8
20240228125843 60 186 1.0 17.0 0.00 0.03 0.00 85 1010.7
20240228125340 60 225 5.0 17.0 0.00 0.03 0.00 84 1010.7
20240228124845 60 191 3.0 15.0 0.00 0.03 0.00 84 1010.8
20240228124323 60 209 4.0 15.0 0.00 0.03 0.00 84 1010.6
20240228123826 60 215 4.0 12.0 0.00 0.03 0.00 84 1010.6
20240228123345 60 188 2.0 10.0 0.00 0.03 0.00 83 1010.6
20240228122830 60 185 2.0 14.0 0.00 0.03 0.00 83 1010.9
20240228122329 60 248 1.0 14.0 0.00 0.03 0.00 83 1011.0
20240228121828 60 167 1.0 7.0 0.00 0.03 0.00 83 1011.0
20240228121323 60 184 2.0 12.0 0.00 0.03 0.00 83 1010.8
20240228120858 60 202 4.0 14.0 0.00 0.03 0.00 83 1010.6
20240228120335 60 203 2.0 14.0 0.00 0.03 0.00 83 1010.7
20240228115830 59 212 0.0 8.0 0.00 0.03 0.00 83 1010.6
20240228115342 60 163 0.0 8.0 0.00 0.03 0.00 83 1010.5
20240228114847 60 196 0.0 6.0 0.00 0.03 0.00 83 1010.6
20240228114328 60 161 1.0 6.0 0.00 0.03 0.00 82 1010.5
20240228113855 60 181 1.0 7.0 0.00 0.03 0.00 82 1010.7
20240228113338 60 241 2.0 7.0 0.00 0.03 0.00 82 1011.0
20240228112854 60 163 1.0 6.0 0.00 0.03 0.00 82 1011.1
20240228112405 60 214 2.0 9.0 0.00 0.03 0.00 82 1011.0
20240228111842 60 263 1.0 9.0 0.00 0.03 0.00 82 1010.9
20240228111337 60 246 0.0 5.0 0.00 0.03 0.00 82 1010.7
20240228110833 60 230 0.0 7.0 0.00 0.03 0.00 81 1010.7
20240228110335 60 200 1.0 7.0 0.00 0.03 0.00 81 1010.7
20240228105838 60 296 0.0 5.0 0.00 0.03 0.00 81 1010.7
20240228105400 60 236 0.0 9.0 0.00 0.03 0.00 81 1010.8
20240228104827 60 284 1.0 4.0 0.00 0.03 0.00 82 1010.9
20240228104328 60 218 0.0 8.0 0.00 0.03 0.00 82 1010.9
20240228103836 60 219 2.0 8.0 0.00 0.03 0.00 82 1010.7
20240228103404 60 151 2.0 6.0 0.00 0.03 0.00 82 1010.3
20240228102843 60 199 1.0 4.0 0.00 0.03 0.00 82 1010.3
20240228102359 60 248 0.0 8.0 0.00 0.03 0.00 81 1010.3
20240228101837 61 175 0.0 10.0 0.00 0.03 0.00 81 1010.1
20240228101339 61 224 2.0 10.0 0.00 0.03 0.00 81 1010.2
20240228100836 60 175 1.0 10.0 0.00 0.03 0.00 81 1010.2
20240228100336 61 224 1.0 10.0 0.00 0.03 0.00 81 1010.2
20240228095835 61 232 1.0 10.0 0.00 0.03 0.00 81 1010.4
20240228095343 61 195 1.0 10.0 0.00 0.03 0.00 81 1010.3
20240228094838 61 243 2.0 9.0 0.00 0.03 0.00 81 1010.3
20240228094333 61 186 3.0 14.0 0.00 0.03 0.00 81 1010.4
20240228093830 61 259 3.0 14.0 0.00 0.03 0.00 81 1010.4
20240228093328 61 236 1.0 5.0 0.00 0.03 0.00 81 1010.3
20240228092829 61 184 1.0 8.0 0.00 0.03 0.00 81 1010.3
20240228092328 61 284 2.0 13.0 0.00 0.03 0.00 81 1010.2
20240228091900 61 252 1.0 13.0 0.00 0.03 0.00 81 1010.1
20240228091336 61 254 3.0 10.0 0.00 0.03 0.00 81 1010.0
20240228090831 61 223 3.0 10.0 0.00 0.03 0.00 81 1010.2
20240228090343 61 211 1.0 14.0 0.00 0.03 0.00 82 1010.2
20240228085850 61 202 1.0 7.0 0.00 0.03 0.00 82 1010.4
20240228085330 61 248 1.0 10.0 0.00 0.03 0.00 82 1010.4
20240228084846 61 190 2.0 13.0 0.00 0.03 0.00 82 1010.4
20240228084340 61 215 1.0 13.0 0.00 0.03 0.00 82 1010.8
20240228083838 61 268 2.0 9.0 0.00 0.03 0.00 82 1010.6
20240228083335 61 223 2.0 8.0 0.00 0.03 0.00 82 1010.7
20240228082849 61 259 1.0 9.0 0.00 0.03 0.00 82 1011.0
20240228082331 61 231 0.0 9.0 0.00 0.03 0.00 83 1011.2
20240228081841 60 169 0.0 9.0 0.00 0.03 0.00 83 1011.2
20240228081328 60 229 1.0 6.0 0.00 0.03 0.00 83 1010.7
20240228080843 60 202 2.0 7.0 0.00 0.03 0.00 84 1011.0
20240228080342 60 209 2.0 9.0 0.00 0.03 0.00 84 1011.0
20240228075839 60 194 0.0 9.0 0.00 0.03 0.00 84 1011.0
20240228075402 60 244 1.0 12.0 0.00 0.03 0.00 85 1011.1
20240228074837 59 194 2.0 12.0 0.00 0.03 0.00 85 1011.3
20240228074339 60 223 0.0 7.0 0.00 0.03 0.00 85 1011.2
20240228073834 60 159 1.0 6.0 0.00 0.03 0.00 85 1011.3
20240228073335 60 171 0.0 6.0 0.00 0.03 0.00 85 1011.3
20240228072850 60 237 0.0 6.0 0.00 0.03 0.00 85 1011.3
20240228072333 60 192 1.0 6.0 0.00 0.03 0.00 85 1011.6
20240228071843 60 197 1.0 6.0 0.00 0.03 0.00 85 1011.7
20240228071333 60 184 0.0 4.0 0.00 0.03 0.00 84 1011.7
20240228070839 60 227 0.0 10.0 0.00 0.03 0.00 84 1011.7
20240228070326 60 238 3.0 10.0 0.00 0.03 0.00 84 1011.9
20240228065829 60 155 1.0 5.0 0.00 0.03 0.00 83 1011.7
20240228065344 61 215 1.0 5.0 0.00 0.03 0.00 82 1011.8
20240228064849 61 242 0.0 5.0 0.00 0.03 0.00 82 1012.2
20240228064330 61 246 0.0 9.0 0.00 0.03 0.00 82 1012.0
20240228063830 61 134 0.0 9.0 0.00 0.03 0.00 82 1011.8
20240228063349 61 156 1.0 8.0 0.00 0.03 0.00 82 1011.5
20240228062823 61 221 2.0 8.0 0.00 0.03 0.00 82 1011.5
20240228062329 61 192 0.0 8.0 0.00 0.03 0.00 83 1011.6
20240228061832 61 202 0.0 11.0 0.00 0.03 0.00 83 1011.3
20240228061328 61 255 1.0 11.0 0.00 0.03 0.00 83 1011.3
20240228060828 61 185 1.0 7.0 0.00 0.03 0.00 82 1011.3
20240228060349 61 259 2.0 7.0 0.00 0.03 0.00 82 1011.6
20240228055826 61 167 1.0 4.0 0.00 0.03 0.00 83 1011.9
20240228055328 61 193 0.0 8.0 0.00 0.03 0.00 83 1011.9
20240228054828 61 248 2.0 9.0 0.00 0.03 0.00 83 1011.7
20240228054342 61 194 2.0 9.0 0.00 0.03 0.00 83 1011.7
20240228053829 61 286 2.0 9.0 0.00 0.03 0.00 83 1011.5
20240228053328 61 180 2.0 8.0 0.00 0.03 0.00 83 1011.6
20240228052843 61 224 1.0 12.0 0.00 0.03 0.00 83 1011.5
20240228052345 61 211 1.0 12.0 0.00 0.03 0.00 83 1011.5
20240228051902 61 178 1.0 10.0 0.00 0.03 0.00 83 1011.4
20240228051330 61 218 3.0 10.0 0.00 0.03 0.00 83 1011.5
20240228050858 61 177 1.0 9.0 0.00 0.03 0.00 83 1011.3
20240228050340 61 207 1.0 11.0 0.00 0.03 0.00 83 1011.2
20240228045828 61 225 3.0 15.0 0.00 0.03 0.03 83 1011.3
20240228045355 61 171 5.0 15.0 0.00 0.03 0.03 83 1011.3
20240228044840 61 251 3.0 16.0 0.00 0.03 0.03 83 1011.6
20240228044352 61 199 4.0 20.0 0.00 0.03 0.03 83 1011.5
20240228043827 61 185 2.0 17.0 0.00 0.03 0.03 84 1011.4
20240228043400 61 201 4.0 17.0 0.00 0.03 0.03 84 1011.4
20240228042835 61 231 4.0 14.0 0.00 0.03 0.03 84 1011.3
20240228042341 61 192 5.0 14.0 0.00 0.03 0.03 84 1011.3
20240228041846 61 138 3.0 14.0 0.00 0.03 0.03 83 1011.2
20240228041328 61 216 5.0 14.0 0.00 0.03 0.03 83 1011.2
20240228040849 61 175 4.0 15.0 0.00 0.03 0.03 84 1011.3
20240228040330 61 248 5.0 15.0 0.00 0.03 0.03 84 1011.3
20240228035859 61 223 2.0 14.0 0.00 0.03 0.03 84 1011.6
20240228035343 61 256 5.0 14.0 0.00 0.03 0.03 83 1011.3
20240228034838 61 183 6.0 16.0 0.00 0.03 0.03 82 1011.4
20240228034338 61 188 4.0 15.0 0.00 0.03 0.03 82 1012.0
20240228033836 61 290 4.0 12.0 0.00 0.03 0.03 82 1012.3
20240228033339 61 211 3.0 13.0 0.00 0.03 0.03 82 1012.5
20240228032841 61 189 1.0 13.0 0.00 0.03 0.03 83 1012.3
20240228032327 61 254 2.0 12.0 0.00 0.03 0.03 83 1012.3
20240228031833 61 232 3.0 12.0 0.00 0.03 0.03 83 1012.1
20240228031326 61 223 2.0 11.0 0.00 0.03 0.03 83 1012.1
20240228030828 61 188 4.0 14.0 0.00 0.03 0.03 83 1011.9
20240228030345 61 207 3.0 14.0 0.00 0.03 0.03 83 1011.9
20240228025840 61 178 4.0 12.0 0.00 0.03 0.03 83 1011.8
20240228025336 61 260 6.0 11.0 0.00 0.03 0.03 84 1011.8
20240228024849 61 163 4.0 13.0 0.00 0.03 0.03 84 1011.7
20240228024329 61 169 7.0 13.0 0.00 0.03 0.03 84 1011.7
20240228023830 61 154 2.0 14.0 0.00 0.03 0.03 84 1011.7
20240228023400 61 161 2.0 11.0 0.00 0.03 0.03 85 1011.9
20240228022823 61 198 2.0 13.0 0.00 0.03 0.03 85 1012.1
20240228022357 61 97 5.0 12.0 0.00 0.03 0.03 84 1012.1
20240228021844 61 247 3.0 12.0 0.00 0.03 0.03 85 1012.3
20240228021349 61 282 2.0 16.0 0.00 0.03 0.03 85 1012.2
20240228020826 61 158 5.0 16.0 0.00 0.03 0.03 85 1012.1
20240228020329 62 186 3.0 19.0 0.00 0.03 0.03 85 1012.1
20240228015840 62 221 5.0 19.0 0.00 0.03 0.03 85 1012.2
20240228015338 62 269 1.0 12.0 0.00 0.03 0.03 85 1012.2
20240228014834 62 180 5.0 15.0 0.00 0.03 0.03 85 1012.0
20240228014328 62 244 5.0 13.0 0.00 0.03 0.03 85 1012.1
20240228013830 62 184 5.0 13.0 0.00 0.03 0.03 85 1012.3
20240228013337 62 286 5.0 13.0 0.00 0.03 0.03 85 1012.5
20240228012835 62 209 3.0 13.0 0.00 0.03 0.03 85 1012.6
20240228012330 62 168 4.0 13.0 0.00 0.03 0.03 85 1012.7
20240228011830 62 321 1.0 15.0 0.00 0.03 0.03 85 1012.6
20240228011330 62 239 2.0 15.0 0.00 0.03 0.03 86 1012.5
20240228010830 62 217 1.0 15.0 0.00 0.03 0.03 86 1012.4
20240228010347 61 259 1.0 15.0 0.00 0.03 0.03 86 1012.6
20240228005844 61 238 2.0 10.0 0.00 0.03 0.03 87 1012.8
20240228005344 60 245 0.0 6.0 0.00 0.03 0.03 88 1012.6
20240228004844 60 199 0.0 9.0 0.00 0.03 0.03 89 1012.7
20240228004344 59 193 2.0 9.0 0.00 0.03 0.03 89 1012.6
20240228003831 59 192 1.0 7.0 0.00 0.03 0.03 88 1012.6
20240228003336 59 177 0.0 7.0 0.00 0.03 0.03 88 1012.9
20240228002835 59 165 1.0 7.0 0.00 0.03 0.03 89 1013.0
20240228002330 59 255 0.0 5.0 0.00 0.03 0.03 88 1012.6
20240228001903 59 236 0.0 8.0 0.00 0.03 0.03 89 1012.4
20240228001331 59 228 0.0 7.0 0.00 0.03 0.03 88 1012.1
20240228000827 59 202 1.0 7.0 0.00 0.03 0.03 88 1012.2
20240228000350 59 185 1.0 7.0 0.00 0.03 0.03 88 1012.2
20240227235842 59 200 0.0 5.0 0.00 0.03 0.03 88 1012.3
20240227235339 59 202 0.0 5.0 0.00 0.03 0.03 88 1012.3
20240227234852 59 202 0.0 7.0 0.00 0.03 0.03 88 1012.3
20240227234344 59 189 1.0 7.0 0.00 0.03 0.03 88 1011.9
20240227233855 59 186 0.0 5.0 0.00 0.03 0.03 88 1011.4
20240227233334 59 269 0.0 9.0 0.00 0.03 0.03 88 1011.3
20240227232842 59 194 1.0 9.0 0.00 0.03 0.03 88 1011.2
20240227232338 59 232 1.0 6.0 0.00 0.03 0.03 88 1011.6
20240227231826 59 179 1.0 6.0 0.00 0.03 0.03 88 1011.7
20240227231402 59 147 0.0 6.0 0.00 0.03 0.03 88 1011.6
20240227230842 59 212 0.0 5.0 0.00 0.03 0.03 88 1011.2
20240227230343 59 241 0.0 9.0 0.00 0.03 0.03 88 1011.4